Terminal Aerodrome Forecast
Issued by NWS Grand Forks, ND

Home | Current Version | Previous Version | Text Only | Print | Product List | Glossary On
Versions: 1 2 3 4 5 6 7 8 9 10 11 12 13 14 15 16
000
FTUS43 KFGF 282338 AAA
TAFGFK
TAF AMD
KGFK 282338Z 2900/2924 27014G21KT P6SM -SHRA BKN060
     FM290300 34012G18KT P6SM VCSH BKN050
     FM291200 35019G27KT P6SM OVC035=

USA.gov is the U.S. government's official web portal to all federal, state and local government web resources and services.